TULLOCH (TUL)

Elevation: 515' · STANISLAUS R basin · Operator: US Bureau of Reclamation

Provisional data, subject to change.
Query executed Saturday at 5:38:45   clock

Select a sensor type for a plot of data.
Note: Reservoir Flows are daily averages.

Earlier

Date RES ELE    STORAGE    RES CHG    TOC STO    ABV TOC    OUTFLOW    INFLOW    EVAP    RIV REL    SPILL    DIS PWR   
 FEET   AF   AF   AF   AF   CFS   CFS   CFS   CFS   CFS   CFS  
11/04/2016 502.20 57714 -168 57000 714 525 444 4 0 0 525
11/05/2016 502.64 58207 493 57000 1207 452 704 3 0 0 452
11/06/2016 502.10 57602 -605 57000 602 377 76 4 0 0 377
11/07/2016 501.70 57159 -443 57000 159 310 91 4 0 0 310
11/08/2016 501.35 56773 -386 57000 -227 205 13 3 0 0 205
11/09/2016 501.11 56508 -265 57000 -492 204 73 3 0 0 204
11/10/2016 500.87 56246 -262 57000 -754 204 77 5 0 0 204
11/11/2016 501.05 56442 196 57000 -558 204 307 4 0 0 204
11/12/2016 501.47 56905 463 -- -- 204 442 5 0 0 204
11/13/2016 501.57 57016 111 -- -- 205 267 6 0 0 205
11/14/2016 501.55 56994 -22 57000 -6 204 198 5 0 0 204
11/15/2016 501.20 56608 -386 -- -- 204 11 2 0 0 204
11/16/2016 501.42 56850 242 57000 -150 206 331 3 0 0 206
11/17/2016 501.10 56497 -353 57000 -503 208 32 2 0 0 208
11/18/2016 501.46 56894 397 57000 -106 208 411 3 0 0 208
11/19/2016 501.16 56563 -331 57000 -437 208 45 4 0 0 208
11/20/2016 500.92 56300 -263 57000 -700 208 77 2 0 0 208
11/21/2016 500.91 56289 -11 57000 -711 208 203 1 0 0 208
11/22/2016 500.72 56083 -206 57000 -917 205 102 1 0 0 205
11/23/2016 500.59 55943 -140 57000 -1057 203 134 2 0 0 203
11/24/2016 501.24 56652 709 57000 -348 204 562 1 0 0 204
11/25/2016 501.65 57104 452 57000 104 204 435 3 0 0 204
11/26/2016 501.47 56905 -199 57000 -95 202 103 1 0 0 202
11/27/2016 501.46 56894 -11 57000 -106 197 194 3 0 0 197
11/28/2016 501.47 56905 11 57000 -95 200 209 3 0 0 200
11/29/2016 501.53 56972 67 57000 -28 205 239 0 0 0 205
11/30/2016 501.30 56718 -254 57000 -282 205 78 1 0 0 205
12/01/2016 501.04 56431 -287 57000 -569 204 60 1 0 0 204
12/02/2016 500.71 56073 -358 57000 -927 208 29 1 0 0 208
12/03/2016 -- -- -- -- -- -- -- -- -- -- --

Later | Latest

Warning! This data is preliminary and subject to revision.

Show TUL Map | Plot TUL Data | 1 Month TUL Data | Real-Time TUL Data | TUL Info